Pulaski, Pennsylvania
Current Conditions -  °F | °C
As of 10:51 AM on Monday 24 Nov 2014 (Local Time) from KYNG Reporting Station
Overcast Overcast  
Wind Chill: 63°   Ceiling: 3400
Heat Index: 63°   Visibility: 10mi
Dew Point: 49°   Wind: 21mph
Humidity: 60%   Direction: 200°SSW
Pressure: 29.32"   Gusts: 35mph
Location:  41.11°N, 80.43°W
Report Text: KYNG 241551Z 20018G30KT 10SM FEW021 BKN034 OVC060 17/09 A2932 RMK AO2 PK WND 18034/1526 SLP928 BINOVC T01720094
Loading
Personal Weather Stations






























Interactive Weather Map New forecast layout! Learn more

10-Day Weather Forecast

Advertisements
Track Severe Weather on mobile